Time;durP1;ratioP1;P1;durP2;ratioP2;P2;SDS_P1;SDS_P2;PMS_P1;PMS_P2;Temp;Humidity;BMP_temperature;BMP_pressure;BME280_temperature;BME280_humidity;BME280_pressure;Samples;Min_cycle;Max_cycle;Signal;HPM_P1;HPM_P2
2022/05/12 00:00:09;;;;;;;3.15;1.50;;;16.90;95.30;;;;;;4984018;28;20105;-81
2022/05/12 00:02:36;;;;;;;4.95;2.65;;;16.80;95.90;;;;;;4953431;28;20129;-82
2022/05/12 00:05:02;;;;;;;7.40;3.83;;;16.90;95.90;;;;;;4974131;28;20041;-81
2022/05/12 00:07:28;;;;;;;7.10;3.20;;;17.10;96.50;;;;;;4971767;28;20525;-82
2022/05/12 00:09:55;;;;;;;11.20;4.43;;;17.00;97.40;;;;;;4986245;28;20053;-82
2022/05/12 00:12:22;;;;;;;10.32;3.80;;;17.00;97.30;;;;;;4972102;28;20034;-82
2022/05/12 00:14:47;;;;;;;5.93;3.92;;;16.90;98.10;;;;;;4970548;28;20113;-81
2022/05/12 00:17:13;;;;;;;5.40;3.35;;;16.80;99.40;;;;;;4968572;28;20393;-82
2022/05/12 00:19:38;;;;;;;8.85;5.30;;;16.70;96.90;;;;;;4956079;28;20038;-82
2022/05/12 00:22:04;;;;;;;3.80;2.58;;;16.80;97.30;;;;;;4988034;28;20354;-82
2022/05/12 00:24:30;;;;;;;9.30;4.10;;;16.80;97.60;;;;;;4972009;28;20056;-82
2022/05/12 00:26:55;;;;;;;9.75;3.40;;;16.70;98.20;;;;;;4982560;28;20061;-82
2022/05/12 00:29:21;;;;;;;4.88;3.50;;;16.60;99.90;;;;;;4967991;28;20030;-82
2022/05/12 00:31:47;;;;;;;6.40;3.30;;;16.70;99.90;;;;;;4971765;28;20486;-81
2022/05/12 00:34:12;;;;;;;11.20;5.32;;;16.70;99.90;;;;;;4970794;28;20049;-82
2022/05/12 00:36:38;;;;;;;6.40;2.95;;;16.50;99.90;;;;;;4972790;28;20034;-81
2022/05/12 00:39:04;;;;;;;5.65;3.33;;;16.30;99.90;;;;;;4973274;28;20058;-81
2022/05/12 00:41:29;;;;;;;4.43;2.10;;;16.30;99.90;;;;;;4984034;28;20137;-81
2022/05/12 00:43:57;;;;;;;9.85;4.15;;;16.40;99.90;;;;;;4971677;28;20132;-82
2022/05/12 00:46:27;;;;;;;6.22;3.53;;;16.30;99.90;;;;;;4968245;28;20466;-81
2022/05/12 00:48:54;;;;;;;5.30;3.35;;;16.00;99.90;;;;;;4955428;28;20089;-82
2022/05/12 00:51:30;;;;;;;2.97;2.20;;;15.90;99.90;;;;;;4968228;28;20030;-82
2022/05/12 00:53:56;;;;;;;7.22;2.28;;;15.90;99.90;;;;;;4955534;28;20045;-82
2022/05/12 00:56:22;;;;;;;8.77;3.00;;;15.90;99.90;;;;;;4968453;28;20022;-81
2022/05/12 00:58:50;;;;;;;7.85;2.95;;;15.80;99.90;;;;;;4972140;28;20452;-81
2022/05/12 01:01:16;;;;;;;7.05;3.10;;;15.60;99.90;;;;;;4971915;28;20034;-81
2022/05/12 01:03:44;;;;;;;8.18;2.25;;;15.50;99.90;;;;;;4953203;28;20056;-81
2022/05/12 01:06:10;;;;;;;6.57;3.17;;;15.40;99.90;;;;;;4970059;28;20030;-81
2022/05/12 01:08:36;;;;;;;4.70;2.55;;;15.40;99.90;;;;;;4970324;28;20563;-81
2022/05/12 01:11:04;;;;;;;5.38;3.17;;;15.30;99.90;;;;;;4970230;28;20040;-81
2022/05/12 01:13:31;;;;;;;9.00;3.10;;;15.30;99.90;;;;;;4970709;28;20088;-81
2022/05/12 01:15:59;;;;;;;5.60;3.30;;;15.10;99.90;;;;;;4953320;28;20065;-81
2022/05/12 01:18:26;;;;;;;4.70;2.50;;;15.00;99.90;;;;;;4970671;28;20034;-81
2022/05/12 01:20:52;;;;;;;7.75;2.92;;;15.00;99.90;;;;;;4969616;28;20524;-82
2022/05/12 01:23:31;;;;;;;6.60;2.60;;;14.90;99.90;;;;;;4972663;28;20034;-81
2022/05/12 01:26:02;;;;;;;4.43;2.42;;;14.80;99.90;;;;;;4951210;28;20049;-81
2022/05/12 01:28:28;;;;;;;6.78;2.95;;;14.60;99.90;;;;;;4952914;28;20030;-81
2022/05/12 01:30:53;;;;;;;6.07;2.85;;;14.60;99.90;;;;;;4974310;28;20509;-81
2022/05/12 01:33:19;;;;;;;5.53;2.88;;;14.70;99.90;;;;;;4956087;28;20037;-81
2022/05/12 01:35:45;;;;;;;9.68;3.58;;;14.50;99.90;;;;;;4972813;28;20034;-81
2022/05/12 01:38:10;;;;;;;5.57;2.95;;;14.30;99.90;;;;;;4984654;28;20034;-81
2022/05/12 01:40:37;;;;;;;4.85;2.38;;;14.40;99.90;;;;;;4971842;28;20084;-81
2022/05/12 01:43:02;;;;;;;5.93;2.10;;;14.30;99.90;;;;;;4984337;28;20037;-81
2022/05/12 01:45:28;;;;;;;5.53;3.05;;;14.20;99.90;;;;;;4989419;28;20417;-81
2022/05/12 01:47:53;;;;;;;4.72;2.75;;;14.00;99.90;;;;;;4986586;28;20062;-81
2022/05/12 01:50:20;;;;;;;11.48;2.95;;;14.00;99.90;;;;;;4952125;28;20030;-81
2022/05/12 01:52:45;;;;;;;7.43;3.22;;;14.00;99.90;;;;;;4972645;28;20084;-81
2022/05/12 01:55:12;;;;;;;6.68;3.20;;;13.90;99.90;;;;;;4986334;28;20470;-81
2022/05/12 01:57:37;;;;;;;4.85;2.58;;;13.80;99.90;;;;;;4953815;28;20025;-81
2022/05/12 02:00:07;;;;;;;8.75;3.90;;;13.80;99.90;;;;;;4954251;28;20033;-81
2022/05/12 02:02:33;;;;;;;5.75;2.92;;;13.70;99.90;;;;;;4970857;28;20092;-81
2022/05/12 02:04:59;;;;;;;7.85;2.58;;;13.80;99.90;;;;;;4973840;28;20046;-81
2022/05/12 02:07:25;;;;;;;8.80;3.40;;;13.60;99.90;;;;;;4989589;28;20074;-81
2022/05/12 02:09:51;;;;;;;5.40;2.40;;;13.80;99.90;;;;;;4992326;28;20117;-81
2022/05/12 02:12:16;;;;;;;4.28;2.88;;;13.60;99.90;;;;;;4974565;28;20116;-81
2022/05/12 02:14:42;;;;;;;6.68;2.60;;;13.60;99.90;;;;;;4992399;28;20395;-81
2022/05/12 02:17:07;;;;;;;4.13;2.33;;;13.60;99.90;;;;;;4974099;28;20030;-81
2022/05/12 02:19:33;;;;;;;4.68;1.80;;;13.50;99.90;;;;;;4988932;28;20030;-81
2022/05/12 02:22:00;;;;;;;4.00;1.50;;;13.50;99.90;;;;;;4958666;28;20528;-81
2022/05/12 02:24:26;;;;;;;4.95;2.15;;;13.40;99.90;;;;;;4989504;28;20050;-80
2022/05/12 02:26:51;;;;;;;4.85;2.05;;;13.30;99.90;;;;;;4975890;28;20038;-80
2022/05/12 02:29:17;;;;;;;7.68;2.33;;;13.20;99.90;;;;;;4987126;28;20037;-80
2022/05/12 02:31:43;;;;;;;2.72;1.80;;;;;;;;;;4991758;28;20033;-80
2022/05/12 02:34:08;;;;;;;3.70;1.85;;;13.00;99.90;;;;;;4987747;28;20037;-80
2022/05/12 02:36:34;;;;;;;4.32;1.38;;;12.90;99.90;;;;;;4975555;28;20436;-80
2022/05/12 02:38:59;;;;;;;4.47;1.92;;;13.20;99.90;;;;;;4956584;28;20385;-80
2022/05/12 02:41:25;;;;;;;4.13;1.52;;;13.20;99.90;;;;;;4981224;28;20382;-81
2022/05/12 02:43:51;;;;;;;4.00;1.45;;;12.60;99.90;;;;;;4972647;28;20073;-80
2022/05/12 02:46:18;;;;;;;3.00;1.20;;;13.20;99.90;;;;;;4988168;28;20417;-81
2022/05/12 02:49:02;;;;;;;4.28;1.73;;;13.30;99.90;;;;;;4983597;28;20030;-81
2022/05/12 02:51:31;;;;;;;3.40;1.20;;;13.20;99.90;;;;;;4969223;28;20038;-81
2022/05/12 02:53:56;;;;;;;2.67;1.10;;;12.70;99.90;;;;;;4967955;28;20509;-81
2022/05/12 02:56:22;;;;;;;4.60;2.28;;;12.80;99.90;;;;;;4971687;28;20061;-80
2022/05/12 02:58:47;;;;;;;2.70;2.17;;;12.90;99.90;;;;;;4991734;28;20054;-80
2022/05/12 03:01:13;;;;;;;6.68;2.38;;;12.90;99.90;;;;;;4948081;28;20030;-80
2022/05/12 03:03:38;;;;;;;4.57;2.00;;;13.00;99.90;;;;;;4973095;28;20042;-81
2022/05/12 03:06:04;;;;;;;5.32;2.22;;;12.90;99.90;;;;;;4955475;28;20516;-81
2022/05/12 03:08:29;;;;;;;1.52;1.35;;;12.90;99.90;;;;;;4957550;28;20622;-81
2022/05/12 03:10:55;;;;;;;4.43;2.80;;;13.60;99.90;;;;;;4983953;28;20505;-80
2022/05/12 03:13:21;;;;;;;5.15;2.00;;;12.80;99.90;;;;;;4966932;28;20030;-80
2022/05/12 03:15:47;;;;;;;1.75;0.95;;;12.70;99.90;;;;;;4952304;28;20029;-80
2022/05/12 03:18:12;;;;;;;3.58;2.10;;;12.90;99.90;;;;;;4970900;28;20030;-81
2022/05/12 03:20:38;;;;;;;4.32;2.20;;;12.80;99.90;;;;;;4972061;28;20026;-80
2022/05/12 03:23:03;;;;;;;3.70;1.40;;;12.60;99.90;;;;;;4958577;28;20152;-80
2022/05/12 03:25:29;;;;;;;3.42;1.60;;;12.50;99.90;;;;;;4972610;28;20064;-80
2022/05/12 03:27:55;;;;;;;4.97;2.20;;;12.60;99.90;;;;;;4990682;28;20033;-80
2022/05/12 03:30:25;;;;;;;2.60;1.65;;;12.60;99.90;;;;;;4954946;28;20018;-80
2022/05/12 03:32:51;;;;;;;2.67;1.45;;;12.60;99.90;;;;;;4989735;28;20490;-80
2022/05/12 03:35:16;;;;;;;5.18;2.15;;;12.20;99.90;;;;;;4969910;28;20092;-80
2022/05/12 03:37:42;;;;;;;6.93;3.20;;;12.40;99.90;;;;;;4989327;28;20247;-80
2022/05/12 03:40:08;;;;;;;7.05;3.08;;;12.20;99.90;;;;;;4953509;28;20036;-80
2022/05/12 03:42:34;;;;;;;5.47;1.80;;;12.00;99.90;;;;;;4985046;28;20037;-80
2022/05/12 03:45:00;;;;;;;4.05;1.73;;;12.20;99.90;;;;;;4958809;28;20025;-80
2022/05/12 03:47:27;;;;;;;10.52;3.50;;;12.20;99.90;;;;;;4989363;28;20442;-80
2022/05/12 03:49:54;;;;;;;5.80;1.83;;;12.10;99.90;;;;;;4972264;28;20029;-80
2022/05/12 03:52:20;;;;;;;4.80;2.22;;;12.20;99.90;;;;;;4974234;28;20026;-80
2022/05/12 03:54:46;;;;;;;7.30;3.40;;;12.30;99.90;;;;;;4955818;28;20034;-80
2022/05/12 03:57:12;;;;;;;7.03;3.85;;;12.00;99.90;;;;;;4970645;28;20034;-80
2022/05/12 03:59:40;;;;;;;3.78;1.63;;;12.00;99.90;;;;;;4970290;28;20551;-80
2022/05/12 04:02:07;;;;;;;4.57;2.22;;;12.00;99.90;;;;;;4957727;28;20651;-80
2022/05/12 04:04:33;;;;;;;5.22;1.90;;;12.00;99.90;;;;;;4973322;28;20050;-80
2022/05/12 04:06:59;;;;;;;3.33;2.42;;;12.10;99.90;;;;;;4970983;28;20372;-80
2022/05/12 04:09:25;;;;;;;3.53;1.70;;;12.10;99.90;;;;;;4972215;28;20041;-80
2022/05/12 04:11:51;;;;;;;4.25;2.42;;;12.00;99.90;;;;;;4988365;28;20485;-80
2022/05/12 04:14:16;;;;;;;10.60;3.35;;;12.00;99.90;;;;;;4971920;28;20059;-80
2022/05/12 04:16:42;;;;;;;7.65;2.58;;;11.90;99.90;;;;;;4956839;28;20117;-80
2022/05/12 04:19:07;;;;;;;6.38;3.33;;;12.00;99.90;;;;;;4947793;28;20065;-81
2022/05/12 04:21:37;;;;;;;3.55;1.88;;;12.10;99.90;;;;;;4968290;28;20077;-80
2022/05/12 04:24:04;;;;;;;3.55;2.67;;;12.10;99.90;;;;;;4986837;28;20037;-79
2022/05/12 04:26:29;;;;;;;11.43;5.10;;;12.10;99.90;;;;;;4954540;28;20478;-79
2022/05/12 04:28:55;;;;;;;5.40;3.17;;;12.20;99.90;;;;;;4984143;28;20044;-79
2022/05/12 04:31:20;;;;;;;4.50;2.40;;;12.20;99.90;;;;;;4972562;28;20120;-79
2022/05/12 04:36:30;;;;;;;7.60;3.00;;;12.40;99.90;;;;;;4974499;28;20355;-80
2022/05/12 04:38:57;;;;;;;3.30;2.08;;;12.50;99.90;;;;;;4987308;28;20051;-80
2022/05/12 04:41:23;;;;;;;6.70;2.85;;;12.50;99.90;;;;;;4986851;28;20033;-80
2022/05/12 04:43:49;;;;;;;11.88;3.90;;;12.70;99.90;;;;;;4968772;28;20494;-80
2022/05/12 04:46:14;;;;;;;7.60;2.20;;;12.30;99.90;;;;;;4972397;28;20044;-80
2022/05/12 04:48:40;;;;;;;7.60;4.00;;;12.80;99.90;;;;;;4972005;28;20192;-79
2022/05/12 04:51:05;;;;;;;3.75;1.85;;;12.80;99.90;;;;;;4973957;28;20037;-79
2022/05/12 04:53:31;;;;;;;3.33;2.33;;;12.90;99.90;;;;;;4956055;28;20375;-79
2022/05/12 04:55:56;;;;;;;3.85;2.28;;;13.00;99.90;;;;;;4969779;28;20431;-79
2022/05/12 04:58:22;;;;;;;3.58;2.05;;;13.20;99.90;;;;;;4950108;28;20030;-80
2022/05/12 05:00:48;;;;;;;5.35;1.80;;;13.60;99.90;;;;;;4956084;28;20036;-80
2022/05/12 05:03:15;;;;;;;6.22;2.30;;;13.10;99.90;;;;;;4967866;28;20041;-81
2022/05/12 05:05:41;;;;;;;2.50;2.20;;;13.40;99.90;;;;;;4984865;28;20034;-82
2022/05/12 05:08:06;;;;;;;4.47;2.35;;;13.00;99.90;;;;;;4973670;28;20310;-82
2022/05/12 05:10:33;;;;;;;6.72;2.45;;;13.50;99.90;;;;;;4984629;28;20389;-81
2022/05/12 05:12:59;;;;;;;5.20;1.88;;;13.40;99.90;;;;;;4984104;28;20098;-82
2022/05/12 05:15:25;;;;;;;6.03;3.13;;;14.10;99.90;;;;;;4982622;28;20037;-81
2022/05/12 05:17:51;;;;;;;4.88;2.47;;;13.80;99.90;;;;;;4968701;28;20022;-82
2022/05/12 05:20:18;;;;;;;7.18;3.35;;;14.10;99.90;;;;;;4955034;28;20029;-81
2022/05/12 05:22:47;;;;;;;6.68;3.15;;;14.10;99.90;;;;;;4970780;28;20373;-81
2022/05/12 05:25:13;;;;;;;4.60;2.53;;;14.70;99.90;;;;;;4967971;28;20513;-81
2022/05/12 05:27:39;;;;;;;6.45;3.20;;;14.20;99.90;;;;;;4983180;28;20085;-81
2022/05/12 05:30:06;;;;;;;4.15;2.50;;;14.30;99.90;;;;;;4984480;28;20030;-81
2022/05/12 05:32:31;;;;;;;5.38;2.40;;;14.40;99.90;;;;;;4951182;28;20066;-81
2022/05/12 05:34:57;;;;;;;8.43;3.38;;;14.30;99.90;;;;;;4967370;28;20057;-81
2022/05/12 05:37:23;;;;;;;6.18;3.33;;;14.60;99.90;;;;;;4966148;28;20044;-81
2022/05/12 05:39:48;;;;;;;5.32;3.25;;;14.40;99.90;;;;;;4973537;28;20025;-81
2022/05/12 05:42:15;;;;;;;6.50;2.70;;;14.70;99.90;;;;;;4991493;28;20030;-81
2022/05/12 05:44:41;;;;;;;6.05;2.42;;;15.00;99.90;;;;;;4959977;28;20038;-81
2022/05/12 05:47:07;;;;;;;6.32;3.00;;;15.10;99.90;;;;;;4958138;28;20137;-81
2022/05/12 05:49:33;;;;;;;4.68;2.88;;;15.20;99.90;;;;;;4971301;28;20125;-82
2022/05/12 05:54:45;;;;;;;6.63;2.72;;;15.40;99.90;;;;;;4992129;28;20125;-81
2022/05/12 05:57:10;;;;;;;4.00;3.00;;;15.60;99.90;;;;;;4990052;28;20118;-82
2022/05/12 05:59:37;;;;;;;4.22;2.90;;;15.70;99.90;;;;;;4983572;28;20120;-81
2022/05/12 06:02:03;;;;;;;4.35;2.25;;;15.50;99.90;;;;;;4987767;28;20026;-82
2022/05/12 06:04:29;;;;;;;3.85;2.38;;;15.80;99.90;;;;;;4990530;28;20042;-82
2022/05/12 06:06:55;;;;;;;5.35;2.22;;;16.00;99.90;;;;;;4948864;28;20399;-82
2022/05/12 06:09:20;;;;;;;6.90;3.05;;;16.60;99.90;;;;;;4974956;28;20044;-81
2022/05/12 06:11:46;;;;;;;5.53;2.78;;;16.10;99.90;;;;;;4990856;28;20338;-82
2022/05/12 06:14:12;;;;;;;3.65;2.80;;;16.10;99.90;;;;;;4977652;28;20022;-82
2022/05/12 06:16:38;;;;;;;7.32;2.60;;;16.30;99.90;;;;;;4991035;28;20045;-82
2022/05/12 06:19:04;;;;;;;5.28;2.55;;;16.40;99.90;;;;;;4987988;28;20072;-81
2022/05/12 06:21:29;;;;;;;5.88;2.88;;;16.50;99.90;;;;;;4992299;28;20100;-81
2022/05/12 06:23:55;;;;;;;5.82;2.53;;;16.70;99.90;;;;;;4990332;28;20053;-82
2022/05/12 06:26:22;;;;;;;1.25;0.73;;;17.10;99.90;;;;;;4989104;28;20034;-82
2022/05/12 06:28:48;;;;;;;4.05;1.85;;;16.80;99.90;;;;;;4955009;28;20067;-81
2022/05/12 06:31:15;;;;;;;5.72;3.13;;;17.00;99.90;;;;;;4973244;28;20034;-82
2022/05/12 06:33:41;;;;;;;6.82;3.17;;;17.10;99.90;;;;;;4948418;28;20037;-81
2022/05/12 06:36:07;;;;;;;5.75;3.55;;;17.40;99.90;;;;;;4958260;28;20041;-81
2022/05/12 06:38:34;;;;;;;6.18;2.72;;;17.30;99.90;;;;;;4971321;28;20034;-81
2022/05/12 06:41:00;;;;;;;5.90;2.72;;;17.40;99.90;;;;;;4971934;28;20058;-81
2022/05/12 06:43:26;;;;;;;7.30;3.58;;;17.40;99.90;;;;;;4986560;28;20044;-81
2022/05/12 06:45:51;;;;;;;8.55;4.07;;;17.60;99.90;;;;;;4989380;28;20102;-81
2022/05/12 06:48:17;;;;;;;7.05;3.38;;;17.50;99.90;;;;;;4954735;28;20084;-81
2022/05/12 06:50:43;;;;;;;6.05;2.70;;;17.80;99.90;;;;;;4958756;28;20192;-81
2022/05/12 06:53:09;;;;;;;5.45;2.78;;;17.80;99.90;;;;;;4986575;28;20450;-81
2022/05/12 06:55:34;;;;;;;6.00;2.42;;;18.10;99.90;;;;;;4974282;28;20034;-81
2022/05/12 06:58:00;;;;;;;9.50;5.10;;;18.20;99.90;;;;;;4991124;28;20026;-81
2022/05/12 07:00:26;;;;;;;11.43;4.57;;;18.30;99.90;;;;;;4976827;28;20072;-81
2022/05/12 07:02:52;;;;;;;7.10;3.28;;;18.60;99.90;;;;;;4959139;28;20026;-81
2022/05/12 07:05:21;;;;;;;7.30;2.60;;;18.80;99.90;;;;;;4991400;28;20494;-81
2022/05/12 07:07:47;;;;;;;6.03;3.33;;;18.80;99.90;;;;;;4973010;28;20022;-81
2022/05/12 07:10:13;;;;;;;7.53;2.95;;;19.40;99.90;;;;;;4977113;28;20103;-81
2022/05/12 07:12:41;;;;;;;11.70;3.88;;;19.00;99.90;;;;;;4976254;28;20038;-81
2022/05/12 07:15:08;;;;;;;6.20;3.05;;;19.20;99.90;;;;;;4996854;28;20053;-81
2022/05/12 07:17:37;;;;;;;9.45;4.75;;;19.20;99.90;;;;;;4961087;28;20035;-82
2022/05/12 07:28:17;;;;;;;6.68;2.80;;;20.30;99.90;;;;;;4996259;28;20044;-82
2022/05/12 07:31:01;;;;;;;7.82;2.75;;;19.50;99.90;;;;;;4974463;28;20034;-81
2022/05/12 07:33:30;;;;;;;6.47;3.47;;;19.60;99.90;;;;;;4980351;28;20022;-81
2022/05/12 07:35:57;;;;;;;3.72;2.10;;;19.80;99.90;;;;;;4976129;28;20033;-82
2022/05/12 07:38:22;;;;;;;6.68;3.13;;;19.40;99.90;;;;;;4956704;28;20022;-82
2022/05/12 07:40:48;;;;;;;6.20;2.63;;;19.70;99.90;;;;;;4970909;28;20038;-82
2022/05/12 07:43:14;;;;;;;5.72;2.67;;;20.20;99.90;;;;;;4986989;28;20064;-82
2022/05/12 07:45:40;;;;;;;7.97;3.00;;;20.90;99.90;;;;;;4955855;28;20438;-82
2022/05/12 07:48:06;;;;;;;7.72;2.90;;;20.10;97.20;;;;;;4967968;28;20084;-82
2022/05/12 07:50:32;;;;;;;5.88;2.75;;;20.00;97.40;;;;;;4968784;28;20060;-81
2022/05/12 07:52:57;;;;;;;5.43;2.80;;;20.40;96.50;;;;;;4965978;28;20054;-81
2022/05/12 07:55:23;;;;;;;6.82;2.92;;;20.10;96.40;;;;;;4950955;28;20494;-81
2022/05/12 07:57:49;;;;;;;8.52;2.97;;;20.80;96.30;;;;;;4988402;28;20437;-81
2022/05/12 08:00:16;;;;;;;3.58;2.50;;;20.90;96.40;;;;;;4984369;28;20026;-81
2022/05/12 08:02:41;;;;;;;8.30;2.13;;;21.10;93.70;;;;;;4970256;28;20034;-82
2022/05/12 08:05:07;;;;;;;6.68;3.20;;;20.90;93.70;;;;;;4984784;28;20076;-82
2022/05/12 08:07:32;;;;;;;13.02;2.97;;;21.20;93.00;;;;;;4970689;28;20033;-82
2022/05/12 08:10:00;;;;;;;4.97;2.80;;;21.10;93.50;;;;;;4969223;28;20033;-81
2022/05/12 08:12:27;;;;;;;6.32;2.95;;;21.40;92.20;;;;;;4988833;28;20057;-82
2022/05/12 08:14:53;;;;;;;7.82;2.80;;;21.60;92.90;;;;;;4970842;28;20508;-82
2022/05/12 08:17:18;;;;;;;7.38;3.10;;;21.90;91.90;;;;;;4983725;28;20046;-82
2022/05/12 08:19:44;;;;;;;7.30;3.33;;;21.80;92.10;;;;;;4988289;28;20466;-82
2022/05/12 08:22:09;;;;;;;8.70;4.07;;;22.10;92.00;;;;;;4974942;28;20397;-82
2022/05/12 08:24:35;;;;;;;5.50;2.42;;;22.00;92.90;;;;;;4988122;28;20037;-82
2022/05/12 08:27:01;;;;;;;7.45;3.97;;;22.40;92.30;;;;;;4969162;28;20389;-82
2022/05/12 08:29:26;;;;;;;9.27;2.97;;;22.50;91.30;;;;;;4975802;28;20030;-82
2022/05/12 08:31:52;;;;;;;2.72;2.45;;;22.80;92.80;;;;;;4952329;28;20041;-82
2022/05/12 08:34:17;;;;;;;2.95;2.63;;;22.80;88.90;;;;;;4970044;28;20057;-81
2022/05/12 08:36:43;;;;;;;3.97;2.70;;;22.10;84.50;;;;;;4987428;28;20052;-82
2022/05/12 08:39:08;;;;;;;10.48;3.30;;;22.30;90.20;;;;;;4971732;28;20129;-82
2022/05/12 08:41:40;;;;;;;9.07;3.47;;;22.60;85.40;;;;;;5004157;28;20038;-82
2022/05/12 08:44:13;;;;;;;4.38;2.10;;;22.20;82.80;;;;;;4999605;28;20067;-83
2022/05/12 08:46:38;;;;;;;6.60;2.17;;;22.80;82.90;;;;;;4994686;28;20088;-82
2022/05/12 08:49:10;;;;;;;3.97;1.20;;;22.90;85.20;;;;;;4989216;28;20057;-83
2022/05/12 08:51:36;;;;;;;3.58;2.67;;;23.00;82.50;;;;;;4970026;28;20069;-83
2022/05/12 08:54:03;;;;;;;5.90;2.67;;;23.10;84.40;;;;;;4959741;28;20082;-83
2022/05/12 08:56:29;;;;;;;5.47;3.85;;;22.80;84.00;;;;;;4968315;28;20034;-83
2022/05/12 08:58:55;;;;;;;4.85;3.63;;;22.80;83.80;;;;;;4956400;28;20034;-83
2022/05/12 09:01:41;;;;;;;6.70;3.72;;;22.70;83.80;;;;;;4973892;28;20037;-84
2022/05/12 09:04:30;;;;;;;4.05;2.92;;;23.00;85.80;;;;;;4975935;28;20069;-83
2022/05/12 09:07:08;;;;;;;6.82;3.80;;;23.20;82.90;;;;;;4989262;28;20347;-83
2022/05/12 09:09:42;;;;;;;8.63;3.10;;;22.90;79.20;;;;;;4979274;28;20069;-83
2022/05/12 09:12:45;;;;;;;7.88;3.40;;;23.20;84.40;;;;;;4970388;28;20030;-83
2022/05/12 09:15:28;;;;;;;4.10;2.33;;;23.20;77.50;;;;;;4993081;28;20061;-83
2022/05/12 09:18:03;;;;;;;2.75;2.08;;;23.70;77.00;;;;;;4981918;28;20101;-84
2022/05/12 09:20:30;;;;;;;4.40;2.63;;;23.70;76.30;;;;;;4957706;28;20054;-84
2022/05/12 09:22:56;;;;;;;5.10;2.83;;;24.20;71.40;;;;;;4959553;28;20582;-84
2022/05/12 09:25:36;;;;;;;7.55;2.45;;;23.90;70.30;;;;;;4973031;28;20045;-84
2022/05/12 09:28:24;;;;;;;4.03;2.00;;;24.30;73.90;;;;;;4974724;28;20038;-85
2022/05/12 09:30:50;;;;;;;7.70;3.08;;;24.70;76.50;;;;;;4991657;28;20038;-85
2022/05/12 09:33:43;;;;;;;5.72;2.78;;;24.70;71.30;;;;;;4952230;28;20079;-85
2022/05/12 09:36:26;;;;;;;6.32;2.70;;;24.40;69.20;;;;;;4958780;28;20092;-85
2022/05/12 09:39:07;;;;;;;3.85;2.55;;;24.60;69.30;;;;;;4914257;28;20042;-86
2022/05/12 09:41:43;;;;;;;3.30;2.83;;;24.50;68.80;;;;;;4888666;29;20813;-86
2022/05/12 09:44:23;;;;;;;5.55;2.72;;;24.20;67.90;;;;;;4975520;28;20521;-86
2022/05/12 09:47:27;;;;;;;6.72;3.13;;;24.60;72.50;;;;;;4974975;28;20038;-86
2022/05/12 09:50:21;;;;;;;4.45;2.97;;;24.90;73.20;;;;;;4893807;29;20036;-85
2022/05/12 09:52:55;;;;;;;5.85;3.33;;;24.80;71.00;;;;;;4907682;29;20519;-86
2022/05/12 09:55:27;;;;;;;5.75;2.70;;;25.00;70.20;;;;;;4966710;28;20030;-86
2022/05/12 09:57:55;;;;;;;4.53;2.50;;;25.10;70.80;;;;;;4956176;28;20034;-87
2022/05/12 10:00:34;;;;;;;5.97;2.10;;;25.20;70.70;;;;;;4985429;28;20037;-86
2022/05/12 10:09:04;;;;;;;4.38;2.80;;;25.10;65.10;;;;;;5006449;28;20062;-86
2022/05/12 10:11:31;;;;;;;5.07;2.72;;;24.70;68.00;;;;;;4992571;28;20500;-86
2022/05/12 10:13:57;;;;;;;6.43;3.72;;;24.80;64.80;;;;;;4991789;28;20048;-86
2022/05/12 10:16:29;;;;;;;4.00;2.63;;;25.10;67.10;;;;;;4958419;28;20029;-86
2022/05/12 10:18:56;;;;;;;4.22;2.60;;;25.20;67.80;;;;;;4948791;28;20036;-87
2022/05/12 10:21:26;;;;;;;3.47;2.30;;;25.10;64.10;;;;;;4956612;28;20033;-87
2022/05/12 10:24:19;;;;;;;3.00;1.77;;;25.10;63.60;;;;;;4987690;28;20030;-86
2022/05/12 10:26:56;;;;;;;5.43;3.22;;;25.10;63.20;;;;;;4975062;28;20030;-86
2022/05/12 10:29:50;;;;;;;3.72;2.50;;;25.40;65.90;;;;;;4972543;28;20052;-87
2022/05/12 10:32:30;;;;;;;5.93;1.80;;;25.50;64.60;;;;;;4959994;28;20121;-87
2022/05/12 10:35:19;;;;;;;2.20;1.98;;;25.80;66.10;;;;;;4987355;28;20057;-87
2022/05/12 10:38:17;;;;;;;4.70;2.38;;;26.00;64.20;;;;;;4970863;28;20033;-86
2022/05/12 10:40:44;;;;;;;3.20;2.00;;;26.30;64.40;;;;;;4975150;28;20393;-87
2022/05/12 10:43:28;;;;;;;6.13;1.90;;;26.40;64.30;;;;;;4990589;28;20037;-87
2022/05/12 10:46:15;;;;;;;4.90;2.33;;;26.80;62.10;;;;;;4985273;28;20398;-87
2022/05/12 10:48:54;;;;;;;5.80;2.25;;;27.00;62.80;;;;;;5004581;28;20089;-87
2022/05/12 10:51:42;;;;;;;4.00;1.35;;;27.30;61.60;;;;;;4955639;28;20026;-87
2022/05/12 10:54:13;;;;;;;4.47;2.08;;;27.40;60.90;;;;;;4981751;28;20038;-86
2022/05/12 10:56:45;;;;;;;2.08;1.50;;;27.40;60.10;;;;;;4988090;28;20097;-87
2022/05/12 10:59:24;;;;;;;4.30;2.33;;;27.60;60.50;;;;;;4992937;28;20034;-86
2022/05/12 11:01:59;;;;;;;5.40;2.50;;;27.90;59.50;;;;;;4956896;28;20049;-85
2022/05/12 11:04:34;;;;;;;5.20;2.55;;;27.70;58.40;;;;;;4970861;28;20053;-85
2022/05/12 11:07:04;;;;;;;2.63;2.08;;;27.60;57.20;;;;;;4991583;28;20034;-85
2022/05/12 11:09:31;;;;;;;4.55;1.92;;;27.60;58.40;;;;;;4973404;28;20041;-84
2022/05/12 11:12:01;;;;;;;4.05;1.85;;;27.70;58.50;;;;;;4973626;28;20034;-85
2022/05/12 11:14:41;;;;;;;2.47;1.83;;;27.60;54.80;;;;;;4987868;28;20504;-84
2022/05/12 11:17:09;;;;;;;3.08;1.55;;;27.40;53.70;;;;;;4955243;28;20030;-84
2022/05/12 11:19:36;;;;;;;4.03;2.05;;;27.50;54.20;;;;;;5004786;28;20452;-83
2022/05/12 11:22:22;;;;;;;4.78;2.60;;;27.90;56.60;;;;;;4990121;28;20030;-83
2022/05/12 11:25:19;;;;;;;4.28;2.33;;;28.30;54.40;;;;;;4990053;28;20380;-82
2022/05/12 11:29:41;;;;;;;2.28;1.70;;;28.50;54.80;;;;;;4962730;28;20474;-82
2022/05/12 11:30:45;;;;;;;4.80;2.13;;;28.40;53.70;;;;;;5003651;28;20050;-81
2022/05/12 11:33:20;;;;;;;2.80;2.25;;;28.50;54.80;;;;;;4984849;28;20054;-81
2022/05/12 11:35:48;;;;;;;2.50;1.70;;;28.60;54.20;;;;;;5004136;28;20729;-80
2022/05/12 11:38:39;;;;;;;2.85;1.58;;;28.60;53.80;;;;;;4971407;28;20860;-81
2022/05/12 11:41:21;;;;;;;4.50;2.08;;;28.50;54.00;;;;;;4987241;28;20034;-80
2022/05/12 11:46:53;;;;;;;2.50;1.63;;;28.50;54.30;;;;;;4288143;28;10001107;-81
2022/05/12 11:49:43;;;;;;;3.35;2.17;;;28.50;53.50;;;;;;5002348;28;20044;-80
2022/05/12 11:52:27;;;;;;;3.22;1.98;;;28.50;52.70;;;;;;4985819;28;20033;-80
2022/05/12 11:54:59;;;;;;;2.38;1.90;;;28.50;52.20;;;;;;4997437;28;20030;-80
2022/05/12 11:57:35;;;;;;;3.85;1.95;;;28.60;52.60;;;;;;4982930;28;20026;-80
2022/05/12 12:00:03;;;;;;;3.40;2.05;;;28.70;51.70;;;;;;4970218;28;20549;-80
2022/05/12 12:02:29;;;;;;;3.42;2.20;;;28.70;51.50;;;;;;4971520;28;20022;-80
2022/05/12 12:05:03;;;;;;;3.40;1.83;;;28.80;50.50;;;;;;5002208;28;20495;-80
2022/05/12 12:07:31;;;;;;;6.13;2.13;;;29.00;51.00;;;;;;4967484;28;20481;-80
2022/05/12 12:10:18;;;;;;;2.45;1.77;;;29.10;51.00;;;;;;5005488;28;20029;-79
2022/05/12 12:12:43;;;;;;;5.05;1.80;;;29.00;50.60;;;;;;4984153;28;20491;-80
2022/05/12 12:15:26;;;;;;;4.10;1.33;;;28.90;50.30;;;;;;5005188;28;20025;-79
2022/05/12 12:17:51;;;;;;;5.07;1.60;;;29.20;48.90;;;;;;4987882;28;20113;-79
2022/05/12 12:20:29;;;;;;;4.78;1.65;;;29.20;49.60;;;;;;4971584;28;20482;-79
2022/05/12 12:22:57;;;;;;;2.20;1.33;;;29.20;49.70;;;;;;5003737;28;20037;-79
2022/05/12 12:25:30;;;;;;;3.92;1.83;;;29.00;49.10;;;;;;4969981;28;20078;-79
2022/05/12 12:28:06;;;;;;;2.53;1.40;;;29.30;49.30;;;;;;4990103;28;20030;-79
2022/05/12 12:30:34;;;;;;;6.85;1.48;;;29.20;49.40;;;;;;4987608;28;20049;-79
2022/05/12 12:33:13;;;;;;;2.65;1.63;;;29.10;49.50;;;;;;4989429;28;20034;-79
2022/05/12 12:36:00;;;;;;;5.05;2.22;;;29.10;48.20;;;;;;4987493;28;20121;-79
2022/05/12 12:38:44;;;;;;;1.92;1.27;;;29.10;49.20;;;;;;4988441;28;20026;-79
2022/05/12 12:41:29;;;;;;;2.97;1.20;;;29.10;47.80;;;;;;4986718;28;20034;-79
2022/05/12 12:44:07;;;;;;;3.60;1.23;;;29.20;48.60;;;;;;4965745;28;20040;-78
2022/05/12 12:46:47;;;;;;;2.45;1.50;;;28.90;45.80;;;;;;4970111;28;20584;-79
2022/05/12 12:49:28;;;;;;;5.22;1.63;;;29.10;46.80;;;;;;4971496;28;20034;-78
2022/05/12 12:52:03;;;;;;;2.60;1.48;;;29.40;48.00;;;;;;4966865;28;20562;-78
2022/05/12 12:57:16;;;;;;;6.03;1.27;;;30.00;48.70;;;;;;4989134;28;20037;-79
2022/05/12 12:59:50;;;;;;;1.92;0.88;;;30.10;44.50;;;;;;4971646;28;20375;-78
2022/05/12 13:02:41;;;;;;;1.45;1.10;;;30.10;45.50;;;;;;4982600;28;20521;-77
2022/05/12 13:05:11;;;;;;;6.57;1.27;;;30.30;45.70;;;;;;4966543;28;20046;-79
2022/05/12 13:07:37;;;;;;;2.63;1.08;;;30.30;44.60;;;;;;4968231;28;20552;-78
2022/05/12 13:10:06;;;;;;;5.32;1.63;;;30.10;44.30;;;;;;4975759;28;20091;-78
2022/05/12 13:12:32;;;;;;;4.35;1.35;;;30.00;45.50;;;;;;4986742;28;20080;-78
2022/05/12 13:15:00;;;;;;;3.10;1.00;;;30.20;45.00;;;;;;4986808;28;20054;-78
2022/05/12 13:17:37;;;;;;;3.33;1.60;;;30.10;44.70;;;;;;4987530;28;20034;-79
2022/05/12 13:20:14;;;;;;;5.20;1.58;;;30.30;44.70;;;;;;4955777;28;20034;-78
2022/05/12 13:22:45;;;;;;;4.25;1.50;;;30.40;45.10;;;;;;4990191;28;20105;-78